createdAt,value
2022-11-27T00:00:04.320Z,6.63
2022-11-27T00:01:04.310Z,6.60
2022-11-27T00:02:04.361Z,6.65
2022-11-27T00:03:04.389Z,6.70
2022-11-27T00:04:04.325Z,6.62
2022-11-27T00:05:04.269Z,6.60
2022-11-27T00:06:04.278Z,6.57
2022-11-27T00:07:04.297Z,6.57
2022-11-27T00:08:04.252Z,6.65
2022-11-27T00:09:04.239Z,6.52
2022-11-27T00:10:04.236Z,6.59
2022-11-27T00:11:04.229Z,6.56
2022-11-27T00:12:04.245Z,6.49
2022-11-27T00:13:04.211Z,6.55
2022-11-27T00:14:04.416Z,6.53
2022-11-27T00:15:04.410Z,6.53
2022-11-27T00:16:04.470Z,6.57
2022-11-27T00:17:04.425Z,6.59
2022-11-27T00:18:04.442Z,6.56
2022-11-27T00:19:04.336Z,6.73
2022-11-27T00:20:04.345Z,6.62
2022-11-27T00:21:04.258Z,6.60
2022-11-27T00:22:04.254Z,6.59
2022-11-27T00:23:04.175Z,6.70
2022-11-27T00:24:04.120Z,6.62
2022-11-27T00:25:04.115Z,6.59
2022-11-27T00:26:04.110Z,6.57
2022-11-27T00:27:04.128Z,6.65
2022-11-27T00:28:04.078Z,6.60
2022-11-27T00:29:04.077Z,6.70
2022-11-27T00:30:04.082Z,6.60
2022-11-27T00:31:04.136Z,6.66
2022-11-27T00:32:04.078Z,6.63
2022-11-27T00:33:04.047Z,6.63
2022-11-27T00:34:04.033Z,6.63
2022-11-27T00:35:04.039Z,6.65
2022-11-27T00:36:04.023Z,6.60
2022-11-27T00:37:04.049Z,6.60
2022-11-27T00:38:04.020Z,6.56
2022-11-27T00:39:03.993Z,6.66
2022-11-27T00:40:04.000Z,6.60
2022-11-27T00:41:03.978Z,6.56
2022-11-27T00:42:04.019Z,6.60
2022-11-27T00:43:03.964Z,6.56
2022-11-27T00:44:03.962Z,6.63
2022-11-27T00:45:03.954Z,6.65
2022-11-27T00:46:03.951Z,6.66
2022-11-27T00:47:04.031Z,6.60
2022-11-27T00:48:03.919Z,6.56
2022-11-27T00:49:03.919Z,6.73
2022-11-27T00:50:04.016Z,6.66
2022-11-27T00:51:03.898Z,6.60
2022-11-27T00:52:03.921Z,6.62
2022-11-27T00:53:03.885Z,6.62
2022-11-27T00:54:03.876Z,6.67
2022-11-27T00:55:03.866Z,6.62
2022-11-27T00:56:03.856Z,6.73
2022-11-27T00:57:03.884Z,6.66
2022-11-27T00:58:03.845Z,6.71
2022-11-27T00:59:03.848Z,6.70
2022-11-27T01:00:03.826Z,6.62
2022-11-27T01:01:03.810Z,6.60
2022-11-27T01:02:03.936Z,6.73
2022-11-27T01:03:03.862Z,6.71
2022-11-27T01:04:03.799Z,6.73
2022-11-27T01:05:03.787Z,6.65
2022-11-27T01:06:03.780Z,6.62
2022-11-27T01:07:03.799Z,6.62
2022-11-27T01:08:44.240Z,6.67
2022-11-27T01:09:03.766Z,6.63
2022-11-27T01:10:03.755Z,6.74
2022-11-27T01:11:03.742Z,6.59
2022-11-27T01:12:03.764Z,6.62
2022-11-27T01:13:03.726Z,6.57
2022-11-27T01:14:03.722Z,6.66
2022-11-27T01:15:03.711Z,6.71
2022-11-27T01:16:03.789Z,6.63
2022-11-27T01:17:03.719Z,6.65
2022-11-27T01:18:03.696Z,6.62
2022-11-27T01:19:03.678Z,6.65
2022-11-27T01:20:03.666Z,6.59
2022-11-27T01:21:03.666Z,6.56
2022-11-27T01:22:03.681Z,6.67
2022-11-27T01:23:03.636Z,6.59
2022-11-27T01:24:03.630Z,6.49
2022-11-27T01:25:03.614Z,6.56
2022-11-27T01:26:03.617Z,6.65
2022-11-27T01:27:03.638Z,6.57
2022-11-27T01:28:03.591Z,6.55
2022-11-27T01:29:03.587Z,6.44
2022-11-27T01:30:03.581Z,6.53
2022-11-27T01:31:03.591Z,6.47
2022-11-27T01:32:03.581Z,6.42
2022-11-27T01:33:03.585Z,6.37
2022-11-27T01:34:03.557Z,6.38
2022-11-27T01:35:03.545Z,6.30
2022-11-27T01:36:03.531Z,6.27
2022-11-27T01:37:03.524Z,6.26
2022-11-27T01:38:03.534Z,6.30
2022-11-27T01:39:04.545Z,6.27
2022-11-27T01:40:03.498Z,6.16
2022-11-27T01:41:03.491Z,6.16
2022-11-27T01:42:03.487Z,6.21
2022-11-27T01:43:03.501Z,6.07
2022-11-27T01:44:03.471Z,6.11
2022-11-27T01:45:03.469Z,6.10
2022-11-27T01:46:03.477Z,6.00
2022-11-27T01:47:03.448Z,6.04
2022-11-27T01:48:03.465Z,5.97
2022-11-27T01:49:03.429Z,5.97
2022-11-27T01:50:03.412Z,5.87
2022-11-27T01:51:03.409Z,5.77
2022-11-27T01:52:03.411Z,5.90
2022-11-27T01:53:03.428Z,5.67
2022-11-27T01:54:03.394Z,5.82
2022-11-27T01:55:03.371Z,5.71
2022-11-27T01:56:03.372Z,5.57
2022-11-27T01:57:03.355Z,5.57
2022-11-27T01:58:03.384Z,5.53
2022-11-27T01:59:03.341Z,5.58
2022-11-27T02:00:03.335Z,5.44
2022-11-27T02:01:03.328Z,5.44
2022-11-27T02:02:03.425Z,5.53
2022-11-27T02:03:03.457Z,5.49
2022-11-27T02:04:03.311Z,5.39
2022-11-27T02:05:03.302Z,5.43
2022-11-27T02:06:03.288Z,5.35
2022-11-27T02:07:03.277Z,5.46
2022-11-27T02:08:03.296Z,5.32
2022-11-27T02:09:03.261Z,5.31
2022-11-27T02:10:03.244Z,5.31
2022-11-27T02:11:03.251Z,5.21
2022-11-27T02:12:03.254Z,5.19
2022-11-27T02:13:03.255Z,5.19
2022-11-27T02:14:03.213Z,5.14
2022-11-27T02:15:03.205Z,5.16
2022-11-27T02:16:03.247Z,5.17
2022-11-27T02:17:03.194Z,5.11
2022-11-27T02:18:03.225Z,5.06
2022-11-27T02:19:03.177Z,5.08
2022-11-27T02:20:03.184Z,5.03
2022-11-27T02:21:03.163Z,5.01
2022-11-27T02:22:03.150Z,4.99
2022-11-27T02:23:03.177Z,5.10
2022-11-27T02:24:03.153Z,5.07
2022-11-27T02:25:03.129Z,5.13
2022-11-27T02:26:03.118Z,5.10
2022-11-27T02:27:03.117Z,5.03
2022-11-27T02:28:03.103Z,5.11
2022-11-27T02:29:03.131Z,5.10
2022-11-27T02:30:03.082Z,4.99
2022-11-27T02:31:03.106Z,4.90
2022-11-27T02:32:03.068Z,4.88
2022-11-27T02:33:03.054Z,4.92
2022-11-27T02:34:03.086Z,4.80
2022-11-27T02:35:03.044Z,4.79
2022-11-27T02:36:03.032Z,4.86
2022-11-27T02:37:03.018Z,4.73
2022-11-27T02:38:03.019Z,4.66
2022-11-27T02:39:03.050Z,4.69
2022-11-27T02:40:02.992Z,4.61
2022-11-27T02:41:02.988Z,4.41
2022-11-27T02:42:03.061Z,4.46
2022-11-27T02:43:02.971Z,4.49
2022-11-27T02:44:02.999Z,4.34
2022-11-27T02:45:02.963Z,4.41
2022-11-27T02:46:02.976Z,4.45
2022-11-27T02:47:03.942Z,4.41
2022-11-27T02:48:02.932Z,4.37
2022-11-27T02:49:02.954Z,4.34
2022-11-27T02:50:02.928Z,4.33
2022-11-27T02:51:02.908Z,4.35
2022-11-27T02:52:23.250Z,4.35
2022-11-27T02:53:02.900Z,4.38
2022-11-27T02:54:02.904Z,4.34
2022-11-27T02:55:02.874Z,4.27
2022-11-27T02:56:02.862Z,4.28
2022-11-27T02:57:02.858Z,4.33
2022-11-27T02:58:08.768Z,4.23
2022-11-27T02:59:03.936Z,4.28
2022-11-27T03:00:02.851Z,4.31
2022-11-27T03:01:02.825Z,4.35
2022-11-27T03:02:02.907Z,4.41
2022-11-27T03:03:02.881Z,4.35
2022-11-27T03:04:02.819Z,4.52
2022-11-27T03:05:02.790Z,4.55
2022-11-27T03:06:02.780Z,4.64
2022-11-27T03:07:02.771Z,4.69
2022-11-27T03:08:02.770Z,4.77
2022-11-27T03:09:02.779Z,4.67
2022-11-27T03:10:02.739Z,4.66
2022-11-27T03:11:02.741Z,4.74
2022-11-27T03:12:02.731Z,4.70
2022-11-27T03:13:02.716Z,4.67
2022-11-27T03:14:02.747Z,4.71
2022-11-27T03:15:02.781Z,4.64
2022-11-27T03:16:02.747Z,4.76
2022-11-27T03:17:02.688Z,4.66
2022-11-27T03:18:02.693Z,4.66
2022-11-27T03:19:02.698Z,4.73
2022-11-27T03:20:02.667Z,4.64
2022-11-27T03:21:02.659Z,4.80
2022-11-27T03:22:02.635Z,4.63
2022-11-27T03:23:03.639Z,4.73
2022-11-27T03:24:02.659Z,4.80
2022-11-27T03:25:02.812Z,4.69
2022-11-27T03:26:02.610Z,4.73
2022-11-27T03:27:02.592Z,4.73
2022-11-27T03:28:03.599Z,4.71
2022-11-27T03:29:02.585Z,4.67
2022-11-27T03:30:02.614Z,4.74
2022-11-27T03:31:02.671Z,4.80
2022-11-27T03:32:02.564Z,4.80
2022-11-27T03:33:02.556Z,4.89
2022-11-27T03:34:02.565Z,4.83
2022-11-27T03:35:02.565Z,4.83
2022-11-27T03:36:02.531Z,4.85
2022-11-27T03:37:02.530Z,4.95
2022-11-27T03:38:02.519Z,4.99
2022-11-27T03:39:02.500Z,4.86
2022-11-27T03:40:02.533Z,4.88
2022-11-27T03:41:02.492Z,4.96
2022-11-27T03:42:02.475Z,5.01
2022-11-27T03:43:02.479Z,4.88
2022-11-27T03:44:02.459Z,5.01
2022-11-27T03:45:02.487Z,4.96
2022-11-27T03:46:02.517Z,4.95
2022-11-27T03:47:02.522Z,5.01
2022-11-27T03:48:02.429Z,4.93
2022-11-27T03:49:02.423Z,5.06
2022-11-27T03:50:02.444Z,5.03
2022-11-27T03:51:02.415Z,4.99
2022-11-27T03:52:02.391Z,5.06
2022-11-27T03:53:02.385Z,4.98
2022-11-27T03:54:02.381Z,5.06
2022-11-27T03:55:02.414Z,5.06
2022-11-27T03:56:06.757Z,5.06
2022-11-27T03:57:04.354Z,5.13
2022-11-27T03:58:02.348Z,5.14
2022-11-27T03:59:02.340Z,5.21
2022-11-27T04:00:02.368Z,5.10
2022-11-27T04:01:17.613Z,5.10
2022-11-27T04:02:02.349Z,5.19
2022-11-27T04:03:02.387Z,5.24
2022-11-27T04:04:02.339Z,5.21
2022-11-27T04:05:02.323Z,5.26
2022-11-27T04:06:02.307Z,5.28
2022-11-27T04:07:02.294Z,5.26
2022-11-27T04:08:02.264Z,5.31
2022-11-27T04:09:02.257Z,5.28
2022-11-27T04:10:02.285Z,5.31
2022-11-27T04:11:02.260Z,5.32
2022-11-27T04:12:02.243Z,5.40
2022-11-27T04:13:02.233Z,5.36
2022-11-27T04:14:02.217Z,5.40
2022-11-27T04:15:02.213Z,5.39
2022-11-27T04:16:02.378Z,5.36
2022-11-27T04:17:02.200Z,5.40
2022-11-27T04:18:02.185Z,5.40
2022-11-27T04:19:02.256Z,5.28
2022-11-27T04:20:02.165Z,5.40
2022-11-27T04:21:02.194Z,5.31
2022-11-27T04:22:02.158Z,5.35
2022-11-27T04:23:02.147Z,5.32
2022-11-27T04:24:02.145Z,5.33
2022-11-27T04:25:02.124Z,5.36
2022-11-27T04:26:02.164Z,5.22
2022-11-27T04:27:02.121Z,5.25
2022-11-27T04:28:02.105Z,5.32
2022-11-27T04:29:02.093Z,5.26
2022-11-27T04:30:02.088Z,5.32
2022-11-27T04:31:02.160Z,5.42
2022-11-27T04:32:02.073Z,5.39
2022-11-27T04:33:02.067Z,5.42
2022-11-27T04:34:02.054Z,5.43
2022-11-27T04:35:02.125Z,5.42
2022-11-27T04:36:02.071Z,5.35
2022-11-27T04:37:02.025Z,5.35
2022-11-27T04:38:02.026Z,5.35
2022-11-27T04:39:02.023Z,5.36
2022-11-27T04:40:02.016Z,5.53
2022-11-27T04:41:02.020Z,5.43
2022-11-27T04:42:01.995Z,5.32
2022-11-27T04:43:01.981Z,5.44
2022-11-27T04:44:01.977Z,5.46
2022-11-27T04:45:01.973Z,5.35
2022-11-27T04:46:01.983Z,5.46
2022-11-27T04:47:01.997Z,5.36
2022-11-27T04:48:01.949Z,5.49
2022-11-27T04:49:01.919Z,5.50
2022-11-27T04:50:02.928Z,5.51
2022-11-27T04:51:02.100Z,5.47
2022-11-27T04:52:01.908Z,5.46
2022-11-27T04:53:01.898Z,5.50
2022-11-27T04:54:17.592Z,5.46
2022-11-27T04:55:01.870Z,5.46
2022-11-27T04:56:02.897Z,5.46
2022-11-27T04:57:01.869Z,5.40
2022-11-27T04:58:01.856Z,5.50
2022-11-27T04:59:01.855Z,5.49
2022-11-27T05:00:01.839Z,5.49
2022-11-27T05:01:01.943Z,5.44
2022-11-27T05:02:01.825Z,5.54
2022-11-27T05:03:01.873Z,5.57
2022-11-27T05:04:01.819Z,5.50
2022-11-27T05:05:01.822Z,5.40
2022-11-27T05:06:01.826Z,5.49
2022-11-27T05:07:01.854Z,5.51
2022-11-27T05:08:02.814Z,5.57
2022-11-27T05:09:01.769Z,5.46
2022-11-27T05:10:01.755Z,5.57
2022-11-27T05:11:02.751Z,5.49
2022-11-27T05:12:01.738Z,5.50
2022-11-27T05:13:01.764Z,5.57
2022-11-27T05:14:01.723Z,5.50
2022-11-27T05:15:04.436Z,5.50
2022-11-27T05:16:02.778Z,5.50
2022-11-27T05:17:01.699Z,5.42
2022-11-27T05:18:01.724Z,5.49
2022-11-27T05:19:01.698Z,5.44
2022-11-27T05:20:01.688Z,5.35
2022-11-27T05:21:01.663Z,5.39
2022-11-27T05:22:01.650Z,5.39
2022-11-27T05:23:01.877Z,5.39
2022-11-27T05:24:01.631Z,5.29
2022-11-27T05:25:01.636Z,5.29
2022-11-27T05:26:01.615Z,5.32
2022-11-27T05:27:01.612Z,5.28
2022-11-27T05:28:01.622Z,5.14
2022-11-27T05:29:02.601Z,5.16
2022-11-27T05:30:01.584Z,5.17
2022-11-27T05:31:01.601Z,5.13
2022-11-27T05:32:01.578Z,5.04
2022-11-27T05:33:01.837Z,5.07
2022-11-27T05:34:01.556Z,5.01
2022-11-27T05:35:01.547Z,4.95
2022-11-27T05:36:01.528Z,4.93
2022-11-27T05:37:01.526Z,4.79
2022-11-27T05:38:01.551Z,4.80
2022-11-27T05:39:01.585Z,4.74
2022-11-27T05:40:01.499Z,4.74
2022-11-27T05:41:01.490Z,4.69
2022-11-27T05:42:01.478Z,4.58
2022-11-27T05:43:01.501Z,4.48
2022-11-27T05:44:01.473Z,4.41
2022-11-27T05:45:01.462Z,4.52
2022-11-27T05:46:01.447Z,4.43
2022-11-27T05:47:01.522Z,4.46
2022-11-27T05:48:01.458Z,4.35
2022-11-27T05:49:01.428Z,4.34
2022-11-27T05:50:01.408Z,4.23
2022-11-27T05:51:01.402Z,4.20
2022-11-27T05:52:01.398Z,4.22
2022-11-27T05:53:21.997Z,4.16
2022-11-27T05:54:01.395Z,4.20
2022-11-27T05:55:01.441Z,4.12
2022-11-27T05:56:01.370Z,4.00
2022-11-27T05:57:01.354Z,3.91
2022-11-27T05:58:01.370Z,3.90
2022-11-27T05:59:01.337Z,3.79
2022-11-27T06:00:01.326Z,3.82
2022-11-27T06:01:01.321Z,3.70
2022-11-27T06:02:01.396Z,3.64
2022-11-27T06:03:01.419Z,3.52
2022-11-27T06:04:02.340Z,3.43
2022-11-27T06:05:01.289Z,3.40
2022-11-27T06:06:01.279Z,3.41
2022-11-27T06:07:01.275Z,3.52
2022-11-27T06:08:01.281Z,3.56
2022-11-27T06:09:01.280Z,3.73
2022-11-27T06:10:01.250Z,3.73
2022-11-27T06:11:01.309Z,3.59
2022-11-27T06:12:01.231Z,3.58
2022-11-27T06:13:01.218Z,3.44
2022-11-27T06:14:01.246Z,3.46
2022-11-27T06:15:01.204Z,3.35
2022-11-27T06:16:01.236Z,3.32
2022-11-27T06:17:01.185Z,3.33
2022-11-27T06:18:01.178Z,3.22
2022-11-27T06:19:01.201Z,3.21
2022-11-27T06:20:01.167Z,3.19
2022-11-27T06:21:01.158Z,3.25
2022-11-27T06:22:01.148Z,3.22
2022-11-27T06:23:01.132Z,3.17
2022-11-27T06:24:02.407Z,3.17
2022-11-27T06:25:01.115Z,3.21
2022-11-27T06:26:01.117Z,3.22
2022-11-27T06:27:01.171Z,3.10
2022-11-27T06:28:01.092Z,3.12
2022-11-27T06:29:01.107Z,3.14
2022-11-27T06:30:01.074Z,3.14
2022-11-27T06:31:41.714Z,3.09
2022-11-27T06:32:01.108Z,3.07
2022-11-27T06:33:01.052Z,2.97
2022-11-27T06:34:01.078Z,2.96
2022-11-27T06:35:01.045Z,2.91
2022-11-27T06:36:01.025Z,2.96
2022-11-27T06:37:01.018Z,2.92
2022-11-27T06:38:01.005Z,2.92
2022-11-27T06:39:01.027Z,2.71
2022-11-27T06:40:00.998Z,2.81
2022-11-27T06:41:00.988Z,2.79
2022-11-27T06:42:01.983Z,2.78
2022-11-27T06:43:01.042Z,2.71
2022-11-27T06:44:00.988Z,2.65
2022-11-27T06:45:00.953Z,2.70
2022-11-27T06:46:00.996Z,2.60
2022-11-27T06:47:00.935Z,2.63
2022-11-27T06:48:00.934Z,2.60
2022-11-27T06:49:00.953Z,2.61
2022-11-27T06:50:00.914Z,2.61
2022-11-27T06:51:00.898Z,2.46
2022-11-27T06:52:00.889Z,2.49
2022-11-27T06:53:00.883Z,2.52
2022-11-27T06:54:25.197Z,2.60
2022-11-27T06:55:00.873Z,2.61
2022-11-27T06:56:00.869Z,2.55
2022-11-27T06:57:00.855Z,2.45
2022-11-27T06:58:00.835Z,2.49
2022-11-27T06:59:00.972Z,2.53
2022-11-27T07:00:00.822Z,2.50
2022-11-27T07:01:00.861Z,2.63
2022-11-27T07:02:00.926Z,2.55
2022-11-27T07:03:00.796Z,2.49
2022-11-27T07:04:00.811Z,2.57
2022-11-27T07:05:00.774Z,2.47
2022-11-27T07:06:00.772Z,2.45
2022-11-27T07:07:00.761Z,2.47
2022-11-27T07:08:00.757Z,2.60
2022-11-27T07:09:00.784Z,2.58
2022-11-27T07:10:00.730Z,2.60
2022-11-27T07:11:00.723Z,2.58
2022-11-27T07:12:34.827Z,2.61
2022-11-27T07:13:00.718Z,2.52
2022-11-27T07:14:00.734Z,2.61
2022-11-27T07:15:04.194Z,2.65
2022-11-27T07:16:01.762Z,2.67
2022-11-27T07:17:00.676Z,2.57
2022-11-27T07:18:00.675Z,2.57
2022-11-27T07:19:00.692Z,2.57
2022-11-27T07:20:00.655Z,2.65
2022-11-27T07:21:00.640Z,2.63
2022-11-27T07:22:08.613Z,2.58
2022-11-27T07:23:00.622Z,2.64
2022-11-27T07:24:00.656Z,2.60
2022-11-27T07:25:00.605Z,2.65
2022-11-27T07:26:00.604Z,2.63
2022-11-27T07:27:00.588Z,2.61
2022-11-27T07:28:00.580Z,2.70
2022-11-27T07:29:00.609Z,2.70
2022-11-27T07:30:00.571Z,2.63
2022-11-27T07:31:00.646Z,2.71
2022-11-27T07:32:00.622Z,2.78
2022-11-27T07:33:00.548Z,2.82
2022-11-27T07:34:00.568Z,2.91
2022-11-27T07:35:00.530Z,2.89
2022-11-27T07:36:00.521Z,3.04
2022-11-27T07:37:00.499Z,2.89
2022-11-27T07:38:00.492Z,2.97
2022-11-27T07:39:00.522Z,3.04
2022-11-27T07:40:03.240Z,3.14
2022-11-27T07:41:01.479Z,3.27
2022-11-27T07:42:23.206Z,3.37
2022-11-27T07:43:01.622Z,3.70
2022-11-27T07:44:00.483Z,4.05
2022-11-27T07:45:00.440Z,4.40
2022-11-27T07:46:00.460Z,4.74
2022-11-27T07:47:00.487Z,5.01
2022-11-27T07:48:00.406Z,5.24
2022-11-27T07:49:01.442Z,5.53
2022-11-27T07:50:00.506Z,5.72
2022-11-27T07:51:00.403Z,5.77
2022-11-27T07:52:00.382Z,6.05
2022-11-27T07:53:00.364Z,6.24
2022-11-27T07:54:00.399Z,6.21
2022-11-27T07:55:00.350Z,5.97
2022-11-27T07:56:01.351Z,5.86
2022-11-27T07:57:00.335Z,5.94
2022-11-27T07:58:00.333Z,6.00
2022-11-27T07:59:00.351Z,6.00
2022-11-27T08:00:00.317Z,6.30
2022-11-27T08:01:00.369Z,6.37
2022-11-27T08:02:00.295Z,6.53
2022-11-27T08:03:00.370Z,6.62
2022-11-27T08:04:00.316Z,6.89
2022-11-27T08:05:00.379Z,6.80
2022-11-27T08:06:00.278Z,7.07
2022-11-27T08:07:00.279Z,6.89
2022-11-27T08:08:00.332Z,6.56
2022-11-27T08:09:00.281Z,6.45
2022-11-27T08:10:00.233Z,6.55
2022-11-27T08:11:00.224Z,6.99
2022-11-27T08:12:00.213Z,6.84
2022-11-27T08:13:00.202Z,6.55
2022-11-27T08:14:00.262Z,6.22
2022-11-27T08:15:00.211Z,6.24
2022-11-27T08:16:00.256Z,6.15
2022-11-27T08:17:00.163Z,6.27
2022-11-27T08:18:00.160Z,6.53
2022-11-27T08:19:00.424Z,6.67
2022-11-27T08:20:00.147Z,6.98
2022-11-27T08:21:00.138Z,7.18
2022-11-27T08:22:00.121Z,7.56
2022-11-27T08:23:03.046Z,8.06
2022-11-27T08:24:01.145Z,8.66
2022-11-27T08:25:00.104Z,8.91
2022-11-27T08:26:00.096Z,9.22
2022-11-27T08:27:00.100Z,8.80
2022-11-27T08:28:00.079Z,8.26
2022-11-27T08:29:00.111Z,7.70
2022-11-27T08:30:00.065Z,7.39
2022-11-27T08:31:00.051Z,6.96
2022-11-27T08:32:00.092Z,6.92
2022-11-27T08:33:00.035Z,6.70
2022-11-27T08:34:00.058Z,6.85
2022-11-27T08:35:00.092Z,6.95
2022-11-27T08:36:00.010Z,7.18
2022-11-27T08:37:00.001Z,7.87
2022-11-27T08:37:59.991Z,8.47
2022-11-27T08:38:59.989Z,8.95
2022-11-27T08:40:00.003Z,9.08
2022-11-27T08:40:59.967Z,8.88
2022-11-27T08:41:59.956Z,8.59
2022-11-27T08:42:59.948Z,8.96
2022-11-27T08:43:59.943Z,8.90
2022-11-27T08:45:00.957Z,8.84
2022-11-27T08:45:59.990Z,8.45
2022-11-27T08:46:59.909Z,8.60
2022-11-27T08:47:59.905Z,8.42
2022-11-27T08:48:59.893Z,8.42
2022-11-27T08:49:59.924Z,8.57
2022-11-27T08:50:59.944Z,8.44
2022-11-27T08:51:59.868Z,8.54
2022-11-27T08:52:59.863Z,8.21
2022-11-27T08:53:59.849Z,8.15
2022-11-27T08:54:59.890Z,8.29
2022-11-27T08:55:59.836Z,7.94
2022-11-27T08:56:59.820Z,7.34
2022-11-27T08:57:59.821Z,6.85
2022-11-27T08:58:59.816Z,6.11
2022-11-27T08:59:59.832Z,5.74
2022-11-27T09:00:59.819Z,5.64
2022-11-27T09:02:00.788Z,5.69
2022-11-27T09:02:59.771Z,5.89
2022-11-27T09:03:59.801Z,5.95
2022-11-27T09:04:59.790Z,6.73
2022-11-27T09:05:59.744Z,7.26
2022-11-27T09:06:59.816Z,7.50
2022-11-27T09:07:59.783Z,7.80
2022-11-27T09:08:59.722Z,8.39
2022-11-27T09:09:59.740Z,9.06
2022-11-27T09:10:59.712Z,8.98
2022-11-27T09:11:59.695Z,9.43
2022-11-27T09:12:59.700Z,9.83
2022-11-27T09:13:59.689Z,9.76
2022-11-27T09:14:59.705Z,10.01
2022-11-27T09:15:59.666Z,9.98
2022-11-27T09:16:59.756Z,10.64
2022-11-27T09:17:59.668Z,11.25
2022-11-27T09:18:59.643Z,11.35
2022-11-27T09:19:59.669Z,11.29
2022-11-27T09:20:59.621Z,10.68
2022-11-27T09:21:59.632Z,10.37
2022-11-27T09:22:59.687Z,9.83
2022-11-27T09:23:59.606Z,9.70
2022-11-27T09:24:59.624Z,9.55
2022-11-27T09:25:59.585Z,9.08
2022-11-27T09:26:59.592Z,8.54
2022-11-27T09:27:59.582Z,8.21
2022-11-27T09:28:59.577Z,8.05
2022-11-27T09:29:59.587Z,8.15
2022-11-27T09:30:59.546Z,8.51
2022-11-27T09:31:59.589Z,8.78
2022-11-27T09:32:59.529Z,8.90
2022-11-27T09:33:59.526Z,8.69
2022-11-27T09:34:59.564Z,8.45
2022-11-27T09:35:59.507Z,8.38
2022-11-27T09:36:59.494Z,8.30
2022-11-27T09:37:59.486Z,8.33
2022-11-27T09:38:59.556Z,8.47
2022-11-27T09:39:59.497Z,8.48
2022-11-27T09:41:03.071Z,8.75
2022-11-27T09:42:00.449Z,8.87
2022-11-27T09:42:59.459Z,9.24
2022-11-27T09:43:59.438Z,9.85
2022-11-27T09:44:59.452Z,10.71
2022-11-27T09:45:59.462Z,10.87
2022-11-27T09:46:59.413Z,11.37
2022-11-27T09:47:59.400Z,11.87
2022-11-27T09:48:59.403Z,12.25
2022-11-27T09:49:59.414Z,12.58
2022-11-27T09:50:59.377Z,12.58
2022-11-27T09:51:59.368Z,12.82
2022-11-27T09:52:59.366Z,13.26
2022-11-27T09:53:59.378Z,13.35
2022-11-27T09:54:59.439Z,13.26
2022-11-27T09:55:59.334Z,13.37
2022-11-27T09:56:59.314Z,13.93
2022-11-27T09:57:59.325Z,14.08
2022-11-27T09:58:59.314Z,14.95
2022-11-27T09:59:59.325Z,15.69
2022-11-27T10:00:59.288Z,15.70
2022-11-27T10:01:59.389Z,14.84
2022-11-27T10:02:59.322Z,14.61
2022-11-27T10:03:59.281Z,14.91
2022-11-27T10:05:13.459Z,14.85
2022-11-27T10:06:01.261Z,14.68
2022-11-27T10:06:59.239Z,14.69
2022-11-27T10:08:03.424Z,14.33
2022-11-27T10:09:01.227Z,14.25
2022-11-27T10:09:59.243Z,14.37
2022-11-27T10:10:59.279Z,15.28
2022-11-27T10:11:59.198Z,15.68
2022-11-27T10:12:59.409Z,16.17
2022-11-27T10:13:59.196Z,16.32
2022-11-27T10:14:59.214Z,16.32
2022-11-27T10:15:59.172Z,16.66
2022-11-27T10:16:59.220Z,16.00
2022-11-27T10:17:59.157Z,15.90
2022-11-27T10:18:59.145Z,15.40
2022-11-27T10:19:59.175Z,14.99
2022-11-27T10:20:59.139Z,14.69
2022-11-27T10:21:59.128Z,14.58
2022-11-27T10:22:59.118Z,14.32
2022-11-27T10:23:59.208Z,14.36
2022-11-27T10:24:59.128Z,14.18
2022-11-27T10:25:59.118Z,14.56
2022-11-27T10:26:59.158Z,14.61
2022-11-27T10:27:59.073Z,13.96
2022-11-27T10:28:59.072Z,13.72
2022-11-27T10:29:59.058Z,13.45
2022-11-27T10:30:59.074Z,13.08
2022-11-27T10:31:59.097Z,12.90
2022-11-27T10:32:59.148Z,12.68
2022-11-27T10:33:59.034Z,12.79
2022-11-27T10:34:59.027Z,12.80
2022-11-27T10:35:59.061Z,12.57
2022-11-27T10:36:59.003Z,12.09
2022-11-27T10:38:05.068Z,11.51
2022-11-27T10:39:00.990Z,11.46
2022-11-27T10:39:58.971Z,10.89
2022-11-27T10:40:58.986Z,10.62
2022-11-27T10:41:59.954Z,10.43
2022-11-27T10:42:59.020Z,10.23
2022-11-27T10:44:01.242Z,10.06
2022-11-27T10:44:58.946Z,9.83
2022-11-27T10:45:59.007Z,9.73
2022-11-27T10:46:58.918Z,9.40
2022-11-27T10:47:58.917Z,9.15
2022-11-27T10:48:58.899Z,9.10
2022-11-27T10:49:58.889Z,9.21
2022-11-27T10:50:58.916Z,9.37
2022-11-27T10:51:58.874Z,9.15
2022-11-27T10:52:58.871Z,9.22
2022-11-27T10:53:58.864Z,9.42
2022-11-27T10:54:58.863Z,9.69
2022-11-27T10:55:58.876Z,9.64
2022-11-27T10:56:58.842Z,9.62
2022-11-27T10:57:58.831Z,9.64
2022-11-27T10:58:58.907Z,9.36
2022-11-27T10:59:58.812Z,9.43
2022-11-27T11:00:58.863Z,9.40
2022-11-27T11:01:58.826Z,9.51
2022-11-27T11:02:58.790Z,9.49
2022-11-27T11:03:58.778Z,9.51
2022-11-27T11:05:24.057Z,9.59
2022-11-27T11:07:00.765Z,9.44
2022-11-27T11:07:58.840Z,9.32
2022-11-27T11:09:01.465Z,9.54
2022-11-27T11:09:59.734Z,9.40
2022-11-27T11:10:58.757Z,9.43
2022-11-27T11:11:58.716Z,9.55
2022-11-27T11:12:58.712Z,9.73
2022-11-27T11:13:58.700Z,9.73
2022-11-27T11:14:58.786Z,9.90
2022-11-27T11:15:58.682Z,10.19
2022-11-27T11:16:58.744Z,10.30
2022-11-27T11:17:58.662Z,10.30
2022-11-27T11:18:58.657Z,10.33
2022-11-27T11:19:58.648Z,10.34
2022-11-27T11:20:58.640Z,10.70
2022-11-27T11:21:58.656Z,10.96
2022-11-27T11:22:58.624Z,11.14
2022-11-27T11:23:58.617Z,10.93
2022-11-27T11:24:58.634Z,11.04
2022-11-27T11:25:58.597Z,10.90
2022-11-27T11:26:58.622Z,10.90
2022-11-27T11:27:58.580Z,10.93
2022-11-27T11:28:58.576Z,10.78
2022-11-27T11:29:58.567Z,10.96
2022-11-27T11:30:58.626Z,11.04
2022-11-27T11:31:58.604Z,11.20
2022-11-27T11:32:58.546Z,11.20
2022-11-27T11:33:58.533Z,10.86
2022-11-27T11:35:01.227Z,10.71
2022-11-27T11:35:59.518Z,10.22
2022-11-27T11:36:58.556Z,10.04
2022-11-27T11:37:58.493Z,10.28
2022-11-27T11:38:58.496Z,10.79
2022-11-27T11:39:58.472Z,10.89
2022-11-27T11:40:59.468Z,11.04
2022-11-27T11:41:58.497Z,11.44
2022-11-27T11:42:58.441Z,12.05
2022-11-27T11:43:59.448Z,12.80
2022-11-27T11:44:58.439Z,13.53
2022-11-27T11:45:58.464Z,13.74
2022-11-27T11:46:58.520Z,13.22
2022-11-27T11:47:58.428Z,12.85
2022-11-27T11:48:58.404Z,12.35
2022-11-27T11:49:58.395Z,11.88
2022-11-27T11:50:59.397Z,11.43
2022-11-27T11:51:58.410Z,11.15
2022-11-27T11:52:58.374Z,11.04
2022-11-27T11:53:58.367Z,10.85
2022-11-27T11:54:58.366Z,10.71
2022-11-27T11:55:58.350Z,10.67
2022-11-27T11:56:58.434Z,10.35
2022-11-27T11:57:58.335Z,10.18
2022-11-27T11:58:58.330Z,10.09
2022-11-27T11:59:58.300Z,10.02
2022-11-27T12:01:25.360Z,9.98
2022-11-27T12:02:00.459Z,9.88
2022-11-27T12:02:58.294Z,9.93
2022-11-27T12:03:58.324Z,10.08
2022-11-27T12:04:58.302Z,10.09
2022-11-27T12:05:58.267Z,10.02
2022-11-27T12:06:58.289Z,10.22
2022-11-27T12:07:58.295Z,10.33
2022-11-27T12:08:58.232Z,10.22
2022-11-27T12:09:58.229Z,10.27
2022-11-27T12:10:58.212Z,10.28
2022-11-27T12:11:58.237Z,10.19
2022-11-27T12:12:58.201Z,10.06
2022-11-27T12:13:58.195Z,10.16
2022-11-27T12:14:58.182Z,10.04
2022-11-27T12:15:58.192Z,9.86
2022-11-27T12:16:58.215Z,9.75
2022-11-27T12:17:59.227Z,9.72
2022-11-27T12:18:58.159Z,9.82
2022-11-27T12:19:58.137Z,9.79
2022-11-27T12:20:58.124Z,9.80
2022-11-27T12:21:58.150Z,9.93
2022-11-27T12:22:58.112Z,9.85
2022-11-27T12:23:58.101Z,9.82
2022-11-27T12:24:58.101Z,9.86
2022-11-27T12:25:58.089Z,9.82
2022-11-27T12:26:58.125Z,9.90
2022-11-27T12:27:58.069Z,9.95
2022-11-27T12:28:59.579Z,9.98
2022-11-27T12:29:59.060Z,10.02
2022-11-27T12:30:58.050Z,10.15
2022-11-27T12:31:58.102Z,10.18
2022-11-27T12:32:58.037Z,10.19
2022-11-27T12:33:58.096Z,10.13
2022-11-27T12:34:58.011Z,10.13
2022-11-27T12:35:58.003Z,10.01
2022-11-27T12:36:57.997Z,9.90
2022-11-27T12:37:58.016Z,9.93
2022-11-27T12:38:57.981Z,9.88
2022-11-27T12:39:57.980Z,9.83
2022-11-27T12:40:57.964Z,9.88
2022-11-27T12:41:57.956Z,9.94
2022-11-27T12:42:57.974Z,9.80
2022-11-27T12:43:57.936Z,9.72
2022-11-27T12:44:57.928Z,9.65
2022-11-27T12:45:57.960Z,9.62
2022-11-27T12:46:57.920Z,9.59
2022-11-27T12:47:57.934Z,9.55
2022-11-27T12:48:57.896Z,9.64
2022-11-27T12:49:57.949Z,9.62
2022-11-27T12:50:57.875Z,9.73
2022-11-27T12:51:57.869Z,9.79
2022-11-27T12:52:57.889Z,9.77
2022-11-27T12:53:57.849Z,9.72
2022-11-27T12:54:57.840Z,9.69
2022-11-27T12:55:57.833Z,9.64
2022-11-27T12:56:57.840Z,9.52
2022-11-27T12:57:57.846Z,9.62
2022-11-27T12:58:57.811Z,9.69
2022-11-27T12:59:57.799Z,9.69
2022-11-27T13:00:57.851Z,9.76
2022-11-27T13:01:57.879Z,9.72
2022-11-27T13:02:57.843Z,9.76
2022-11-27T13:03:57.773Z,9.65
2022-11-27T13:04:57.763Z,9.69
2022-11-27T13:05:57.824Z,9.67
2022-11-27T13:06:57.742Z,9.80
2022-11-27T13:07:57.907Z,9.77
2022-11-27T13:08:57.728Z,9.73
2022-11-27T13:09:57.716Z,9.62
2022-11-27T13:11:12.617Z,9.65
2022-11-27T13:11:57.710Z,9.65
2022-11-27T13:12:57.730Z,9.65
2022-11-27T13:13:57.688Z,9.61
2022-11-27T13:14:57.683Z,9.76